createdAt,value
2022-09-10T00:00:55.619Z,100410.38
2022-09-10T00:03:32.972Z,100416.73
2022-09-10T00:06:05.913Z,100418.71
2022-09-10T00:08:38.213Z,100421.82
2022-09-10T00:11:11.668Z,100430.43
2022-09-10T00:13:45.155Z,100427.95
2022-09-10T00:16:19.216Z,100427.85
2022-09-10T00:18:52.078Z,100428.55
2022-09-10T00:21:24.045Z,100436.06
2022-09-10T00:23:57.786Z,100436.45
2022-09-10T00:26:33.108Z,100441.55
2022-09-10T00:29:06.052Z,100449.33
2022-09-10T00:31:38.381Z,100452.47
2022-09-10T00:34:12.997Z,100453.11
2022-09-10T00:36:46.819Z,100451.21
2022-09-10T00:39:20.490Z,100453.27
2022-09-10T00:41:52.634Z,100454.58
2022-09-10T00:44:58.698Z,100455.05
2022-09-10T00:47:34.584Z,100453.94
2022-09-10T00:50:23.500Z,100452.37
2022-09-10T00:52:56.999Z,100448.36
2022-09-10T00:55:30.387Z,100446.88
2022-09-10T00:58:04.047Z,100445.30
2022-09-10T01:00:40.012Z,100445.29
2022-09-10T01:03:15.922Z,100449.35
2022-09-10T01:05:50.975Z,100449.68
2022-09-10T01:08:22.700Z,100458.16
2022-09-10T01:11:12.088Z,100462.65
2022-09-10T01:14:03.777Z,100466.27
2022-09-10T01:16:41.408Z,100467.08
2022-09-10T01:19:33.735Z,100461.98
2022-09-10T01:22:23.389Z,100458.23
2022-09-10T01:25:00.937Z,100454.80
2022-09-10T01:27:41.328Z,100456.14
2022-09-10T01:30:18.215Z,100452.38
2022-09-10T01:33:07.766Z,100444.84
2022-09-10T01:35:43.216Z,100446.11
2022-09-10T01:38:19.848Z,100440.45
2022-09-10T01:40:54.369Z,100444.92
2022-09-10T01:43:27.401Z,100446.95
2022-09-10T01:46:19.242Z,100441.14
2022-09-10T01:49:07.398Z,100441.27
2022-09-10T01:51:54.470Z,100444.42
2022-09-10T01:54:41.208Z,100440.02
2022-09-10T01:57:27.953Z,100435.95
2022-09-10T02:00:11.863Z,100435.32
2022-09-10T02:02:49.602Z,100433.69
2022-09-10T02:05:26.863Z,100434.61
2022-09-10T02:08:02.517Z,100434.02
2022-09-10T02:10:37.568Z,100431.98
2022-09-10T02:13:09.405Z,100433.12
2022-09-10T02:15:41.713Z,100434.64
2022-09-10T02:18:13.981Z,100429.17
2022-09-10T02:20:48.221Z,100432.86
2022-09-10T02:23:22.247Z,100433.40
2022-09-10T02:25:55.970Z,100433.66
2022-09-10T02:28:27.800Z,100437.40
2022-09-10T02:31:02.180Z,100435.52
2022-09-10T02:33:34.185Z,100437.60
2022-09-10T02:36:07.455Z,100433.79
2022-09-10T02:38:39.498Z,100432.80
2022-09-10T02:41:14.827Z,100429.55
2022-09-10T02:43:46.722Z,100429.29
2022-09-10T02:46:18.637Z,100426.27
2022-09-10T02:48:50.436Z,100424.19
2022-09-10T02:51:24.648Z,100421.21
2022-09-10T02:53:56.561Z,100423.02
2022-09-10T02:56:29.186Z,100421.42
2022-09-10T02:59:00.856Z,100424.23
2022-09-10T03:01:37.759Z,100422.33
2022-09-10T03:04:09.481Z,100418.26
2022-09-10T03:06:41.293Z,100421.07
2022-09-10T03:09:13.029Z,100417.23
2022-09-10T03:11:46.392Z,100415.48
2022-09-10T03:14:20.409Z,100413.02
2022-09-10T03:16:52.765Z,100410.38
2022-09-10T03:19:24.441Z,100410.99
2022-09-10T03:21:58.983Z,100408.03
2022-09-10T03:24:31.023Z,100412.45
2022-09-10T03:27:02.812Z,100412.05
2022-09-10T03:29:34.547Z,100413.52
2022-09-10T03:32:07.550Z,100412.81
2022-09-10T03:34:40.014Z,100414.52
2022-09-10T03:37:11.822Z,100414.83
2022-09-10T03:39:43.607Z,100415.57
2022-09-10T03:42:17.378Z,100416.98
2022-09-10T03:44:49.049Z,100412.16
2022-09-10T03:47:20.876Z,100417.69
2022-09-10T03:49:52.719Z,100416.34
2022-09-10T03:52:26.400Z,100414.98
2022-09-10T03:54:58.554Z,100412.95
2022-09-10T03:57:30.429Z,100419.65
2022-09-10T04:00:02.235Z,100422.23
2022-09-10T04:02:35.099Z,100424.46
2022-09-10T04:05:09.588Z,100423.16
2022-09-10T04:07:41.706Z,100426.27
2022-09-10T04:10:16.881Z,100431.09
2022-09-10T04:12:51.172Z,100428.77
2022-09-10T04:15:23.256Z,100433.99
2022-09-10T04:17:55.112Z,100432.38
2022-09-10T04:20:27.684Z,100432.02
2022-09-10T04:23:01.075Z,100434.29
2022-09-10T04:25:33.642Z,100434.60
2022-09-10T04:28:05.986Z,100433.24
2022-09-10T04:30:37.883Z,100433.60
2022-09-10T04:33:11.508Z,100433.27
2022-09-10T04:35:46.468Z,100435.48
2022-09-10T04:38:18.306Z,100436.79
2022-09-10T04:40:57.098Z,100433.23
2022-09-10T04:43:29.251Z,100430.99
2022-09-10T04:46:00.998Z,100429.24
2022-09-10T04:48:33.246Z,100428.83
2022-09-10T04:51:16.267Z,100424.94
2022-09-10T04:53:48.685Z,100428.42
2022-09-10T04:56:21.149Z,100428.60
2022-09-10T04:58:52.938Z,100424.77
2022-09-10T05:01:25.124Z,100424.69
2022-09-10T05:03:57.824Z,100425.43
2022-09-10T05:06:29.527Z,100428.11
2022-09-10T05:09:01.348Z,100427.96
2022-09-10T05:11:33.087Z,100425.36
2022-09-10T05:14:05.921Z,100423.20
2022-09-10T05:16:38.677Z,100425.33
2022-09-10T05:19:17.842Z,100424.48
2022-09-10T05:21:50.100Z,100424.83
2022-09-10T05:24:22.645Z,100419.89
2022-09-10T05:26:54.369Z,100418.36
2022-09-10T05:29:26.263Z,100416.27
2022-09-10T05:31:58.055Z,100416.77
2022-09-10T05:34:30.192Z,100414.56
2022-09-10T05:37:02.192Z,100412.99
2022-09-10T05:39:33.998Z,100410.84
2022-09-10T05:42:07.419Z,100412.10
2022-09-10T05:44:39.974Z,100411.27
2022-09-10T05:47:11.635Z,100410.19
2022-09-10T05:49:43.494Z,100412.95
2022-09-10T05:52:15.278Z,100410.38
2022-09-10T05:54:47.018Z,100410.05
2022-09-10T05:57:18.829Z,100408.36
2022-09-10T05:59:50.582Z,100403.29
2022-09-10T06:02:24.311Z,100405.34
2022-09-10T06:04:57.123Z,100406.70
2022-09-10T06:07:30.074Z,100408.11
2022-09-10T06:10:01.888Z,100411.09
2022-09-10T06:12:34.284Z,100408.60
2022-09-10T06:15:07.310Z,100405.48
2022-09-10T06:17:39.341Z,100407.30
2022-09-10T06:20:18.173Z,100406.05
2022-09-10T06:22:49.926Z,100404.56
2022-09-10T06:25:22.581Z,100402.63
2022-09-10T06:27:54.251Z,100403.96
2022-09-10T06:30:33.235Z,100403.98
2022-09-10T06:33:05.072Z,100408.13
2022-09-10T06:35:37.148Z,100408.86
2022-09-10T06:38:08.847Z,100405.73
2022-09-10T06:40:43.057Z,100405.34
2022-09-10T06:43:14.807Z,100401.01
2022-09-10T06:45:46.626Z,100401.80
2022-09-10T06:48:38.206Z,100400.84
2022-09-10T06:51:13.962Z,100397.78
2022-09-10T06:53:47.211Z,100395.34
2022-09-10T06:56:19.816Z,100396.52
2022-09-10T06:58:51.850Z,100397.14
2022-09-10T07:01:25.932Z,100389.13
2022-09-10T07:03:59.353Z,100390.92
2022-09-10T07:06:33.779Z,100394.86
2022-09-10T07:09:06.328Z,100399.38
2022-09-10T07:11:41.564Z,100398.66
2022-09-10T07:14:15.124Z,100398.79
2022-09-10T07:16:47.637Z,100398.21
2022-09-10T07:19:20.879Z,100391.92
2022-09-10T07:21:53.753Z,100393.79
2022-09-10T07:24:25.492Z,100401.73
2022-09-10T07:26:58.088Z,100404.39
2022-09-10T07:29:31.325Z,100407.95
2022-09-10T07:32:13.384Z,100409.27
2022-09-10T07:34:47.336Z,100407.34
2022-09-10T07:37:19.177Z,100407.59
2022-09-10T07:39:50.920Z,100410.29
2022-09-10T07:42:23.319Z,100408.44
2022-09-10T07:44:55.035Z,100407.18
2022-09-10T07:47:27.463Z,100402.14
2022-09-10T07:49:59.875Z,100406.08
2022-09-10T07:52:31.897Z,100405.91
2022-09-10T07:55:03.571Z,100410.95
2022-09-10T07:57:38.023Z,100412.69
2022-09-10T08:00:15.592Z,100414.02
2022-09-10T08:02:49.624Z,100415.44
2022-09-10T08:05:21.594Z,100415.14
2022-09-10T08:07:55.473Z,100412.41
2022-09-10T08:10:27.309Z,100414.98
2022-09-10T08:12:59.514Z,100416.94
2022-09-10T08:15:31.226Z,100420.27
2022-09-10T08:18:02.945Z,100428.91
2022-09-10T08:20:34.783Z,100428.55
2022-09-10T08:23:06.690Z,100428.42
2022-09-10T08:25:38.449Z,100431.90
2022-09-10T08:28:10.639Z,100430.96
2022-09-10T08:30:42.813Z,100433.73
2022-09-10T08:33:14.704Z,100437.12
2022-09-10T08:35:46.402Z,100436.82
2022-09-10T08:38:18.434Z,100436.88
2022-09-10T08:40:50.236Z,100439.11
2022-09-10T08:43:32.419Z,100442.70
2022-09-10T08:46:15.123Z,100442.77
2022-09-10T08:48:49.927Z,100444.05
2022-09-10T08:51:28.025Z,100444.88
2022-09-10T08:54:04.329Z,100445.33
2022-09-10T08:56:37.251Z,100450.16
2022-09-10T08:59:18.577Z,100446.27
2022-09-10T09:01:56.512Z,100444.76
2022-09-10T09:04:36.115Z,100443.28
2022-09-10T09:07:15.340Z,100441.61
2022-09-10T09:09:50.057Z,100443.44
2022-09-10T09:12:32.175Z,100446.20
2022-09-10T09:15:13.480Z,100438.79
2022-09-10T09:17:59.836Z,100440.04
2022-09-10T09:20:47.347Z,100439.49
2022-09-10T09:23:23.823Z,100439.89
2022-09-10T09:26:00.252Z,100435.91
2022-09-10T09:28:37.817Z,100434.63
2022-09-10T09:31:17.843Z,100436.83
2022-09-10T09:33:51.546Z,100434.33
2022-09-10T09:36:32.347Z,100433.13
2022-09-10T09:39:05.019Z,100428.71
2022-09-10T09:41:44.319Z,100428.84
2022-09-10T09:44:23.854Z,100431.23
2022-09-10T09:46:56.531Z,100432.45
2022-09-10T09:49:29.265Z,100428.39
2022-09-10T09:52:04.957Z,100430.10
2022-09-10T09:57:29.942Z,100417.55
2022-09-10T10:00:34.529Z,100418.55
2022-09-10T10:03:19.065Z,100420.69
2022-09-10T10:05:51.082Z,100416.92
2022-09-10T10:08:32.318Z,100417.31
2022-09-10T10:11:04.355Z,100414.02
2022-09-10T10:13:41.891Z,100410.73
2022-09-10T10:16:22.041Z,100411.98
2022-09-10T10:18:53.821Z,100412.92
2022-09-10T10:21:33.083Z,100413.20
2022-09-10T10:24:06.079Z,100417.05
2022-09-10T10:26:38.494Z,100413.96
2022-09-10T10:29:20.917Z,100416.21
2022-09-10T10:31:53.630Z,100416.48
2022-09-10T10:34:45.369Z,100410.59
2022-09-10T10:37:22.559Z,100409.60
2022-09-10T10:43:16.983Z,100409.42
2022-09-10T10:45:59.744Z,100409.49
2022-09-10T10:48:48.301Z,100411.70
2022-09-10T10:51:32.022Z,100411.00
2022-09-10T10:54:23.768Z,100412.55
2022-09-10T10:57:06.476Z,100413.14
2022-09-10T10:59:53.115Z,100411.10
2022-09-10T11:02:34.897Z,100411.20
2022-09-10T11:05:20.217Z,100410.50
2022-09-10T11:07:52.897Z,100403.85
2022-09-10T11:10:28.906Z,100401.84
2022-09-10T11:13:09.389Z,100400.58
2022-09-10T11:15:47.216Z,100399.89
2022-09-10T11:18:27.373Z,100401.41
2022-09-10T11:21:08.846Z,100402.04
2022-09-10T11:23:45.499Z,100399.48
2022-09-10T11:26:20.983Z,100404.11
2022-09-10T11:29:00.673Z,100401.45
2022-09-10T11:31:35.383Z,100404.81
2022-09-10T11:34:12.163Z,100399.20
2022-09-10T11:36:50.403Z,100396.20
2022-09-10T11:39:28.945Z,100392.92
2022-09-10T11:42:05.735Z,100386.57
2022-09-10T11:44:51.116Z,100386.35
2022-09-10T11:47:27.956Z,100386.67
2022-09-10T11:50:15.158Z,100384.43
2022-09-10T11:52:47.279Z,100390.52
2022-09-10T11:55:21.503Z,100381.52
2022-09-10T11:58:04.280Z,100380.84
2022-09-10T12:00:48.167Z,100382.20
2022-09-10T12:03:49.931Z,100381.29
2022-09-10T12:06:24.117Z,100377.59
2022-09-10T12:09:10.114Z,100376.62
2022-09-10T12:11:53.362Z,100368.48
2022-09-10T12:14:25.452Z,100368.73
2022-09-10T12:17:03.445Z,100367.95
2022-09-10T12:19:38.613Z,100362.52
2022-09-10T12:22:21.156Z,100357.81
2022-09-10T12:25:03.220Z,100353.06
2022-09-10T12:27:49.132Z,100345.67
2022-09-10T12:31:00.861Z,100343.23
2022-09-10T12:33:59.466Z,100343.56
2022-09-10T12:37:19.904Z,100344.52
2022-09-10T12:40:32.944Z,100338.17
2022-09-10T12:43:44.739Z,100339.48
2022-09-10T12:46:25.824Z,100343.83
2022-09-10T12:49:14.135Z,100340.59
2022-09-10T12:52:00.138Z,100340.02
2022-09-10T12:54:47.083Z,100334.91
2022-09-10T12:57:31.179Z,100330.19
2022-09-10T13:00:22.103Z,100329.09
2022-09-10T13:02:58.374Z,100328.77
2022-09-10T13:05:36.707Z,100325.91
2022-09-10T13:08:18.748Z,100323.92
2022-09-10T13:11:07.430Z,100318.20
2022-09-10T13:13:44.791Z,100318.02
2022-09-10T13:16:21.188Z,100320.73
2022-09-10T13:18:56.904Z,100319.05
2022-09-10T13:21:53.995Z,100314.53
2022-09-10T13:24:53.559Z,100312.39
2022-09-10T13:27:39.067Z,100310.38
2022-09-10T13:30:24.150Z,100312.41
2022-09-10T13:32:59.162Z,100307.27
2022-09-10T13:36:06.358Z,100307.11
2022-09-10T13:39:15.912Z,100305.53
2022-09-10T13:42:08.954Z,100308.21
2022-09-10T13:44:56.972Z,100301.32
2022-09-10T13:47:35.660Z,100307.38
2022-09-10T13:50:19.214Z,100311.32
2022-09-10T13:52:55.048Z,100310.83
2022-09-10T13:55:29.843Z,100304.39
2022-09-10T13:58:09.402Z,100303.02
2022-09-10T14:00:50.048Z,100304.84
2022-09-10T14:03:26.013Z,100299.98
2022-09-10T14:06:00.370Z,100296.06
2022-09-10T14:08:35.788Z,100293.91
2022-09-10T14:11:20.974Z,100291.19
2022-09-10T14:13:56.276Z,100294.06
2022-09-10T14:16:32.948Z,100294.95
2022-09-10T14:19:08.781Z,100292.10
2022-09-10T14:21:40.661Z,100283.82
2022-09-10T14:24:30.848Z,100279.02
2022-09-10T14:27:16.666Z,100279.82
2022-09-10T14:29:49.386Z,100288.04
2022-09-10T14:32:29.554Z,100282.01
2022-09-10T14:35:23.043Z,100277.58
2022-09-10T14:37:54.976Z,100272.73
2022-09-10T14:40:40.975Z,100272.50
2022-09-10T14:43:29.898Z,100274.64
2022-09-10T14:46:02.968Z,100272.82
2022-09-10T14:48:37.573Z,100276.21
2022-09-10T14:51:18.259Z,100274.93
2022-09-10T14:53:55.428Z,100275.02
2022-09-10T14:56:31.510Z,100277.23
2022-09-10T14:59:11.792Z,100276.63
2022-09-10T15:01:46.319Z,100276.63
2022-09-10T15:04:23.046Z,100279.77
2022-09-10T15:06:56.259Z,100279.80
2022-09-10T15:09:29.293Z,100276.92
2022-09-10T15:12:06.001Z,100281.92
2022-09-10T15:14:39.020Z,100282.41
2022-09-10T15:17:17.692Z,100279.46
2022-09-10T15:19:50.024Z,100278.99
2022-09-10T15:22:31.682Z,100283.05
2022-09-10T15:25:11.691Z,100282.41
2022-09-10T15:27:43.820Z,100281.51
2022-09-10T15:30:16.927Z,100284.15
2022-09-10T15:32:48.692Z,100293.08
2022-09-10T15:35:20.485Z,100296.33
2022-09-10T15:37:52.358Z,100299.20
2022-09-10T15:40:24.197Z,100301.20
2022-09-10T15:42:55.989Z,100302.61
2022-09-10T15:45:27.831Z,100308.48
2022-09-10T15:47:59.573Z,100312.59
2022-09-10T15:50:32.789Z,100314.76
2022-09-10T15:53:12.116Z,100320.27
2022-09-10T15:55:44.188Z,100321.84
2022-09-10T15:58:15.996Z,100321.50
2022-09-10T16:00:47.677Z,100320.41
2022-09-10T16:03:22.265Z,100315.73
2022-09-10T16:05:55.120Z,100311.12
2022-09-10T16:08:26.844Z,100307.41
2022-09-10T16:10:59.116Z,100305.30
2022-09-10T16:13:31.952Z,100308.59
2022-09-10T16:16:06.271Z,100310.08
2022-09-10T16:18:38.731Z,100314.40
2022-09-10T16:21:12.762Z,100319.17
2022-09-10T16:23:46.385Z,100321.60
2022-09-10T16:26:21.615Z,100319.00
2022-09-10T16:28:54.229Z,100322.66
2022-09-10T16:31:27.871Z,100324.91
2022-09-10T16:34:02.641Z,100320.64
2022-09-10T16:36:37.007Z,100321.33
2022-09-10T16:39:12.538Z,100319.27
2022-09-10T16:41:45.906Z,100320.50
2022-09-10T16:44:19.292Z,100318.30
2022-09-10T16:46:51.145Z,100321.70
2022-09-10T16:49:23.487Z,100327.98
2022-09-10T16:51:55.420Z,100331.64
2022-09-10T16:54:27.404Z,100338.23
2022-09-10T16:56:59.323Z,100345.23
2022-09-10T16:59:31.072Z,100347.27
2022-09-10T17:02:02.821Z,100345.48
2022-09-10T17:04:35.022Z,100332.48
2022-09-10T17:07:07.030Z,100328.96
2022-09-10T17:09:38.823Z,100325.52
2022-09-10T17:12:12.164Z,100322.94
2022-09-10T17:14:43.853Z,100321.92
2022-09-10T17:17:15.621Z,100333.16
2022-09-10T17:19:47.407Z,100332.92
2022-09-10T17:22:19.167Z,100335.66
2022-09-10T17:24:51.128Z,100332.38
2022-09-10T17:27:25.546Z,100328.76
2022-09-10T17:29:57.512Z,100324.91
2022-09-10T17:32:29.294Z,100322.17
2022-09-10T17:35:02.092Z,100325.23
2022-09-10T17:37:33.822Z,100331.35
2022-09-10T17:40:16.945Z,100332.61
2022-09-10T17:42:50.682Z,100337.02
2022-09-10T17:45:22.667Z,100339.21
2022-09-10T17:47:54.595Z,100339.74
2022-09-10T17:50:30.945Z,100346.59
2022-09-10T17:53:03.138Z,100349.66
2022-09-10T17:55:36.955Z,100353.27
2022-09-10T17:58:08.763Z,100352.39
2022-09-10T18:00:43.793Z,100359.14
2022-09-10T18:03:16.495Z,100364.73
2022-09-10T18:05:48.327Z,100370.14
2022-09-10T18:08:20.346Z,100376.41
2022-09-10T18:11:01.087Z,100373.57
2022-09-10T18:13:33.354Z,100374.66
2022-09-10T18:16:09.436Z,100371.98
2022-09-10T18:18:41.766Z,100372.55
2022-09-10T18:21:19.678Z,100368.23
2022-09-10T18:23:55.059Z,100370.38
2022-09-10T18:26:28.821Z,100363.62
2022-09-10T18:29:02.971Z,100360.47
2022-09-10T18:31:37.372Z,100363.07
2022-09-10T18:34:12.964Z,100364.25
2022-09-10T18:36:45.231Z,100365.10
2022-09-10T18:39:17.343Z,100368.41
2022-09-10T18:41:50.270Z,100373.02
2022-09-10T18:44:24.103Z,100371.65
2022-09-10T18:46:56.228Z,100367.48
2022-09-10T18:49:28.528Z,100368.10
2022-09-10T18:52:00.464Z,100367.77
2022-09-10T18:54:32.865Z,100361.95
2022-09-10T18:57:04.831Z,100361.80
2022-09-10T18:59:38.482Z,100362.77
2022-09-10T19:02:13.569Z,100365.55
2022-09-10T19:05:09.765Z,100364.02
2022-09-10T19:07:37.530Z,100365.55
2022-09-10T19:10:10.460Z,100368.02
2022-09-10T19:12:42.328Z,100371.20
2022-09-10T19:15:15.095Z,100375.32
2022-09-10T19:17:46.938Z,100371.23
2022-09-10T19:20:19.345Z,100370.41
2022-09-10T19:22:52.524Z,100369.45
2022-09-10T19:25:24.365Z,100366.43
2022-09-10T19:27:56.258Z,100366.87
2022-09-10T19:30:30.630Z,100366.09
2022-09-10T19:33:05.948Z,100367.43
2022-09-10T19:35:38.317Z,100363.29
2022-09-10T19:38:34.006Z,100366.27
2022-09-10T19:41:07.941Z,100367.73
2022-09-10T19:43:40.421Z,100362.40
2022-09-10T19:46:12.917Z,100358.47
2022-09-10T19:48:45.417Z,100358.29
2022-09-10T19:51:20.372Z,100360.64
2022-09-10T19:53:52.392Z,100372.34
2022-09-10T19:56:25.762Z,100382.41
2022-09-10T19:58:58.788Z,100388.11
2022-09-10T20:01:32.354Z,100390.91
2022-09-10T20:04:06.319Z,100390.69
2022-09-10T20:06:39.448Z,100393.26
2022-09-10T20:09:12.126Z,100390.83
2022-09-10T20:11:44.006Z,100390.83
2022-09-10T20:14:17.538Z,100391.52
2022-09-10T20:16:49.433Z,100396.25
2022-09-10T20:19:22.196Z,100397.89
2022-09-10T20:21:54.144Z,100398.00
2022-09-10T20:24:28.755Z,100399.58
2022-09-10T20:27:00.513Z,100396.34
2022-09-10T20:29:32.974Z,100396.09
2022-09-10T20:32:04.805Z,100398.17
2022-09-10T20:34:37.697Z,100392.66
2022-09-10T20:37:09.393Z,100392.77
2022-09-10T20:39:42.819Z,100396.41
2022-09-10T20:42:14.730Z,100400.02
2022-09-10T20:44:47.064Z,100399.27
2022-09-10T20:47:18.769Z,100405.09
2022-09-10T20:49:50.525Z,100403.69
2022-09-10T20:52:23.496Z,100405.24
2022-09-10T20:54:55.577Z,100410.45
2022-09-10T20:57:30.258Z,100406.04
2022-09-10T21:00:02.289Z,100403.19
2022-09-10T21:02:34.229Z,100399.98
2022-09-10T21:05:07.472Z,100397.95
2022-09-10T21:07:39.127Z,100399.63
2022-09-10T21:10:15.593Z,100397.89
2022-09-10T21:12:47.268Z,100386.97
2022-09-10T21:15:19.371Z,100384.98
2022-09-10T21:17:51.463Z,100378.05
2022-09-10T21:20:25.190Z,100382.94
2022-09-10T21:22:56.923Z,100383.20
2022-09-10T21:25:29.320Z,100384.53
2022-09-10T21:28:01.538Z,100381.08
2022-09-10T21:30:35.624Z,100371.27
2022-09-10T21:33:07.393Z,100362.27
2022-09-10T21:35:39.254Z,100354.84
2022-09-10T21:38:11.858Z,100353.27
2022-09-10T21:40:44.587Z,100356.48
2022-09-10T21:43:16.499Z,100357.44
2022-09-10T21:45:49.927Z,100346.63
2022-09-10T21:48:22.124Z,100341.08
2022-09-10T21:51:02.798Z,100335.84
2022-09-10T21:53:35.561Z,100337.80
2022-09-10T21:56:08.726Z,100338.84
2022-09-10T21:58:41.365Z,100342.15
2022-09-10T22:01:17.383Z,100340.66
2022-09-10T22:03:50.297Z,100344.34
2022-09-10T22:06:23.735Z,100343.70
2022-09-10T22:08:58.767Z,100344.38
2022-09-10T22:11:33.711Z,100349.00
2022-09-10T22:14:07.137Z,100344.34
2022-09-10T22:16:38.967Z,100345.46
2022-09-10T22:19:14.267Z,100347.90
2022-09-10T22:21:47.851Z,100346.48
2022-09-10T22:24:19.645Z,100346.63
2022-09-10T22:26:51.411Z,100350.23
2022-09-10T22:29:23.453Z,100348.59
2022-09-10T22:31:56.426Z,100345.30
2022-09-10T22:34:28.894Z,100346.23
2022-09-10T22:37:03.595Z,100349.29
2022-09-10T22:39:37.240Z,100352.16
2022-09-10T22:42:11.687Z,100355.56
2022-09-10T22:44:43.402Z,100358.02
2022-09-10T22:47:15.441Z,100359.10
2022-09-10T22:49:47.641Z,100357.64
2022-09-10T22:52:21.031Z,100356.27
2022-09-10T22:54:52.716Z,100355.23
2022-09-10T22:57:24.537Z,100356.70
2022-09-10T22:59:56.497Z,100360.17
2022-09-10T23:02:29.361Z,100360.52
2022-09-10T23:05:01.257Z,100360.84
2022-09-10T23:07:34.046Z,100364.95
2022-09-10T23:10:09.632Z,100365.98
2022-09-10T23:12:42.189Z,100368.59
2022-09-10T23:15:15.870Z,100368.60
2022-09-10T23:17:47.921Z,100364.09
2022-09-10T23:20:20.139Z,100364.15
2022-09-10T23:22:53.813Z,100363.80
2022-09-10T23:25:25.634Z,100363.28
2022-09-10T23:27:57.367Z,100365.45
2022-09-10T23:30:29.670Z,100364.66
2022-09-10T23:33:01.412Z,100366.93
2022-09-10T23:35:33.092Z,100367.68
2022-09-10T23:38:04.890Z,100364.52
2022-09-10T23:40:36.587Z,100361.74
2022-09-10T23:43:09.928Z,100363.56
2022-09-10T23:45:41.836Z,100366.14
2022-09-10T23:48:13.589Z,100368.17
2022-09-10T23:50:46.112Z,100364.41
2022-09-10T23:53:18.846Z,100364.86
2022-09-10T23:55:50.867Z,100363.61
2022-09-10T23:58:22.672Z,100364.16
